sensor_id;sensor_type;location;lat;lon;timestamp;pressure;altitude;pressure_sealevel;temperature;humidity
60319;BME280;46163;52.306;5.634;2023-04-26T00:01:19;101790.22;;;15.72;55.74
60319;BME280;46163;52.306;5.634;2023-04-26T00:03:46;101784.03;;;15.72;55.74
60319;BME280;46163;52.306;5.634;2023-04-26T00:06:11;101787.16;;;15.69;55.86
60319;BME280;46163;52.306;5.634;2023-04-26T00:08:39;101786.31;;;15.68;55.89
60319;BME280;46163;52.306;5.634;2023-04-26T00:11:04;101783.84;;;15.67;55.66
60319;BME280;46163;52.306;5.634;2023-04-26T00:13:30;101788.41;;;15.66;55.71
60319;BME280;46163;52.306;5.634;2023-04-26T00:15:55;101797.50;;;15.65;55.69
60319;BME280;46163;52.306;5.634;2023-04-26T00:18:21;101802.03;;;15.65;55.61
60319;BME280;46163;52.306;5.634;2023-04-26T00:20:47;101790.88;;;15.61;55.61
60319;BME280;46163;52.306;5.634;2023-04-26T00:23:12;101792.94;;;15.59;55.69
60319;BME280;46163;52.306;5.634;2023-04-26T00:25:38;101797.25;;;15.60;55.63
60319;BME280;46163;52.306;5.634;2023-04-26T00:28:03;101793.97;;;15.58;55.55
60319;BME280;46163;52.306;5.634;2023-04-26T00:30:29;101786.34;;;15.55;55.72
60319;BME280;46163;52.306;5.634;2023-04-26T00:32:55;101788.00;;;15.56;55.66
60319;BME280;46163;52.306;5.634;2023-04-26T00:35:20;101796.44;;;15.53;55.51
60319;BME280;46163;52.306;5.634;2023-04-26T00:37:46;101784.28;;;15.50;55.39
60319;BME280;46163;52.306;5.634;2023-04-26T00:40:16;101792.94;;;15.52;55.53
60319;BME280;46163;52.306;5.634;2023-04-26T00:42:42;101778.31;;;15.48;55.57
60319;BME280;46163;52.306;5.634;2023-04-26T00:45:07;101785.31;;;15.49;55.55
60319;BME280;46163;52.306;5.634;2023-04-26T00:47:33;101781.81;;;15.49;55.57
60319;BME280;46163;52.306;5.634;2023-04-26T00:50:00;101779.34;;;15.47;55.56
60319;BME280;46163;52.306;5.634;2023-04-26T00:52:26;101773.16;;;15.47;55.59
60319;BME280;46163;52.306;5.634;2023-04-26T00:54:53;101769.84;;;15.45;55.54
60319;BME280;46163;52.306;5.634;2023-04-26T00:57:20;101769.44;;;15.41;55.46
60319;BME280;46163;52.306;5.634;2023-04-26T00:59:46;101763.03;;;15.42;55.50
60319;BME280;46163;52.306;5.634;2023-04-26T01:02:11;101767.81;;;15.40;55.44
60319;BME280;46163;52.306;5.634;2023-04-26T01:04:37;101769.66;;;15.40;55.47
60319;BME280;46163;52.306;5.634;2023-04-26T01:07:04;101769.06;;;15.38;55.53
60319;BME280;46163;52.306;5.634;2023-04-26T01:09:31;101770.69;;;15.39;55.39
60319;BME280;46163;52.306;5.634;2023-04-26T01:11:57;101771.09;;;15.36;55.48
60319;BME280;46163;52.306;5.634;2023-04-26T01:14:23;101769.22;;;15.36;55.42
60319;BME280;46163;52.306;5.634;2023-04-26T01:16:49;101777.50;;;15.35;55.49
60319;BME280;46163;52.306;5.634;2023-04-26T01:19:16;101771.53;;;15.33;55.21
60319;BME280;46163;52.306;5.634;2023-04-26T01:21:43;101778.75;;;15.32;55.45
60319;BME280;46163;52.306;5.634;2023-04-26T01:24:10;101777.31;;;15.30;55.35
60319;BME280;46163;52.306;5.634;2023-04-26T01:26:36;101775.03;;;15.26;55.33
60319;BME280;46163;52.306;5.634;2023-04-26T01:29:15;101783.91;;;15.27;55.39
60319;BME280;46163;52.306;5.634;2023-04-26T01:31:40;101788.44;;;15.26;55.35
60319;BME280;46163;52.306;5.634;2023-04-26T01:34:06;101782.47;;;15.24;55.25
60319;BME280;46163;52.306;5.634;2023-04-26T01:36:31;101782.06;;;15.21;55.39
60319;BME280;46163;52.306;5.634;2023-04-26T01:38:57;101790.94;;;15.21;55.43
60319;BME280;46163;52.306;5.634;2023-04-26T01:41:22;101769.06;;;15.11;55.28
60319;BME280;46163;52.306;5.634;2023-04-26T01:43:48;101783.28;;;15.18;55.39
60319;BME280;46163;52.306;5.634;2023-04-26T01:46:14;101791.34;;;15.18;55.51
60319;BME280;46163;52.306;5.634;2023-04-26T01:48:40;101778.97;;;15.17;55.50
60319;BME280;46163;52.306;5.634;2023-04-26T01:51:06;101784.53;;;15.16;55.28
60319;BME280;46163;52.306;5.634;2023-04-26T01:53:31;101791.75;;;15.15;55.28
60319;BME280;46163;52.306;5.634;2023-04-26T01:56:00;101776.50;;;15.09;55.28
60319;BME280;46163;52.306;5.634;2023-04-26T01:58:27;101785.78;;;15.13;55.24
60319;BME280;46163;52.306;5.634;2023-04-26T02:00:52;101783.50;;;15.10;55.21
60319;BME280;46163;52.306;5.634;2023-04-26T02:03:18;101785.34;;;15.10;55.39
60319;BME280;46163;52.306;5.634;2023-04-26T02:05:43;101788.03;;;15.10;55.38
60319;BME280;46163;52.306;5.634;2023-04-26T02:08:08;101776.91;;;15.06;55.46
60319;BME280;46163;52.306;5.634;2023-04-26T02:10:34;101778.56;;;15.07;55.23
60319;BME280;46163;52.306;5.634;2023-04-26T02:13:00;101769.91;;;15.05;55.39
60319;BME280;46163;52.306;5.634;2023-04-26T02:15:25;101770.31;;;15.02;55.42
60319;BME280;46163;52.306;5.634;2023-04-26T02:17:51;101771.13;;;15.03;55.21
60319;BME280;46163;52.306;5.634;2023-04-26T02:20:18;101773.00;;;15.02;55.24
60319;BME280;46163;52.306;5.634;2023-04-26T02:22:43;101780.22;;;15.02;55.37
60319;BME280;46163;52.306;5.634;2023-04-26T02:25:09;101774.44;;;14.98;55.33
60319;BME280;46163;52.306;5.634;2023-04-26T02:27:36;101766.41;;;14.98;55.12
60319;BME280;46163;52.306;5.634;2023-04-26T02:30:02;101777.13;;;14.98;55.21
60319;BME280;46163;52.306;5.634;2023-04-26T02:32:28;101779.19;;;14.96;55.38
60319;BME280;46163;52.306;5.634;2023-04-26T02:34:53;101781.88;;;14.96;55.29
60319;BME280;46163;52.306;5.634;2023-04-26T02:37:18;101780.41;;;14.93;55.24
60319;BME280;46163;52.306;5.634;2023-04-26T02:39:49;101769.09;;;14.91;55.29
60319;BME280;46163;52.306;5.634;2023-04-26T02:42:16;101778.97;;;14.91;55.11
60319;BME280;46163;52.306;5.634;2023-04-26T02:44:42;101780.00;;;14.90;55.22
60319;BME280;46163;52.306;5.634;2023-04-26T02:47:08;101781.06;;;14.89;55.29
60319;BME280;46163;52.306;5.634;2023-04-26T02:49:33;101778.59;;;14.87;55.29
60319;BME280;46163;52.306;5.634;2023-04-26T02:51:59;101780.81;;;14.84;55.31
60319;BME280;46163;52.306;5.634;2023-04-26T02:54:25;101777.94;;;14.85;55.27
60319;BME280;46163;52.306;5.634;2023-04-26T02:56:50;101775.69;;;14.82;55.33
60319;BME280;46163;52.306;5.634;2023-04-26T02:59:16;101768.66;;;14.81;54.97
60319;BME280;46163;52.306;5.634;2023-04-26T03:01:41;101771.16;;;14.83;55.42
60319;BME280;46163;52.306;5.634;2023-04-26T03:04:07;101768.66;;;14.81;55.27
60319;BME280;46163;52.306;5.634;2023-04-26T03:06:35;101770.53;;;14.81;55.39
60319;BME280;46163;52.306;5.634;2023-04-26T03:09:00;101765.38;;;14.79;55.35
60319;BME280;46163;52.306;5.634;2023-04-26T03:11:26;101770.13;;;14.77;55.10
60319;BME280;46163;52.306;5.634;2023-04-26T03:13:51;101770.31;;;14.76;55.14
60319;BME280;46163;52.306;5.634;2023-04-26T03:16:21;101773.00;;;14.76;55.06
60319;BME280;46163;52.306;5.634;2023-04-26T03:18:47;101763.31;;;14.75;55.21
60319;BME280;46163;52.306;5.634;2023-04-26T03:21:12;101754.66;;;14.66;55.15
60319;BME280;46163;52.306;5.634;2023-04-26T03:23:38;101760.84;;;14.73;55.22
60319;BME280;46163;52.306;5.634;2023-04-26T03:26:03;101758.38;;;14.72;55.27
60319;BME280;46163;52.306;5.634;2023-04-26T03:28:29;101758.78;;;14.68;55.22
60319;BME280;46163;52.306;5.634;2023-04-26T03:30:55;101757.94;;;14.68;55.36
60319;BME280;46163;52.306;5.634;2023-04-26T03:33:20;101761.06;;;14.72;55.45
60319;BME280;46163;52.306;5.634;2023-04-26T03:35:46;101750.94;;;14.74;55.13
60319;BME280;46163;52.306;5.634;2023-04-26T03:38:11;101754.44;;;14.81;55.16
60319;BME280;46163;52.306;5.634;2023-04-26T03:40:37;101760.03;;;14.86;54.81
60319;BME280;46163;52.306;5.634;2023-04-26T03:43:02;101756.50;;;14.92;54.71
60319;BME280;46163;52.306;5.634;2023-04-26T03:45:30;101760.00;;;14.99;54.50
60319;BME280;46163;52.306;5.634;2023-04-26T03:47:56;101755.47;;;15.06;54.45
60319;BME280;46163;52.306;5.634;2023-04-26T03:50:21;101756.91;;;15.15;54.39
60319;BME280;46163;52.306;5.634;2023-04-26T03:52:47;101757.72;;;15.22;53.97
60319;BME280;46163;52.306;5.634;2023-04-26T03:55:12;101755.66;;;15.31;53.97
60319;BME280;46163;52.306;5.634;2023-04-26T03:57:38;101761.63;;;15.40;53.85
60319;BME280;46163;52.306;5.634;2023-04-26T04:00:04;101756.63;;;15.50;53.56
60319;BME280;46163;52.306;5.634;2023-04-26T04:02:40;101761.78;;;15.58;53.65
60319;BME280;46163;52.306;5.634;2023-04-26T04:05:06;101745.69;;;15.65;53.31
60319;BME280;46163;52.306;5.634;2023-04-26T04:07:32;101753.28;;;15.74;53.13
60319;BME280;46163;52.306;5.634;2023-04-26T04:10:00;101754.91;;;15.82;52.98
60319;BME280;46163;52.306;5.634;2023-04-26T04:12:26;101753.00;;;15.89;52.84
60319;BME280;46163;52.306;5.634;2023-04-26T04:14:51;101757.31;;;15.97;52.54
60319;BME280;46163;52.306;5.634;2023-04-26T04:17:17;101761.00;;;16.02;52.59
60319;BME280;46163;52.306;5.634;2023-04-26T04:19:43;101768.00;;;16.10;52.33
60319;BME280;46163;52.306;5.634;2023-04-26T04:22:12;101762.19;;;16.13;52.16
60319;BME280;46163;52.306;5.634;2023-04-26T04:24:37;101759.47;;;16.20;52.12
60319;BME280;46163;52.306;5.634;2023-04-26T04:27:03;101757.78;;;16.25;51.76
60319;BME280;46163;52.306;5.634;2023-04-26T04:29:29;101754.22;;;16.31;51.85
60319;BME280;46163;52.306;5.634;2023-04-26T04:31:55;101758.72;;;16.37;51.72
60319;BME280;46163;52.306;5.634;2023-04-26T04:34:20;101755.59;;;16.40;51.67
60319;BME280;46163;52.306;5.634;2023-04-26T04:36:48;101760.34;;;16.45;51.54
60319;BME280;46163;52.306;5.634;2023-04-26T04:39:14;101760.72;;;16.49;51.36
60319;BME280;46163;52.306;5.634;2023-04-26T04:41:41;101760.50;;;16.50;51.61
60319;BME280;46163;52.306;5.634;2023-04-26T04:44:17;101746.88;;;16.52;51.22
60319;BME280;46163;52.306;5.634;2023-04-26T04:46:43;101757.78;;;16.57;51.07
60319;BME280;46163;52.306;5.634;2023-04-26T04:49:10;101753.06;;;16.52;51.03
60319;BME280;46163;52.306;5.634;2023-04-26T04:51:37;101759.59;;;16.63;51.13
60319;BME280;46163;52.306;5.634;2023-04-26T04:54:13;101760.19;;;16.65;50.95
60319;BME280;46163;52.306;5.634;2023-04-26T04:56:38;101766.00;;;16.69;50.92
60319;BME280;46163;52.306;5.634;2023-04-26T04:59:04;101771.75;;;16.72;51.04
60319;BME280;46163;52.306;5.634;2023-04-26T05:01:31;101763.25;;;16.75;50.82
60319;BME280;46163;52.306;5.634;2023-04-26T05:04:00;101773.56;;;16.78;50.71
60319;BME280;46163;52.306;5.634;2023-04-26T05:06:26;101760.56;;;16.75;50.72
60319;BME280;46163;52.306;5.634;2023-04-26T05:08:52;101770.00;;;16.84;50.76
60319;BME280;46163;52.306;5.634;2023-04-26T05:11:18;101760.69;;;16.87;50.69
60319;BME280;46163;52.306;5.634;2023-04-26T05:13:45;101768.06;;;16.91;50.68
60319;BME280;46163;52.306;5.634;2023-04-26T05:16:10;101771.34;;;16.93;50.90
60319;BME280;46163;52.306;5.634;2023-04-26T05:18:38;101777.97;;;16.98;50.52
60319;BME280;46163;52.306;5.634;2023-04-26T05:21:04;101780.19;;;17.01;50.85
60319;BME280;46163;52.306;5.634;2023-04-26T05:23:29;101789.09;;;17.01;50.81
60319;BME280;46163;52.306;5.634;2023-04-26T05:25:55;101791.72;;;17.08;50.76
60319;BME280;46163;52.306;5.634;2023-04-26T05:28:21;101820.88;;;17.11;50.47
60319;BME280;46163;52.306;5.634;2023-04-26T05:30:47;101813.63;;;17.11;50.31
60319;BME280;46163;52.306;5.634;2023-04-26T05:33:14;101812.38;;;17.14;50.41
60319;BME280;46163;52.306;5.634;2023-04-26T05:35:39;101811.91;;;17.17;50.59
60319;BME280;46163;52.306;5.634;2023-04-26T05:38:05;101809.81;;;17.19;50.54
60319;BME280;46163;52.306;5.634;2023-04-26T05:40:30;101802.97;;;17.23;50.68
60319;BME280;46163;52.306;5.634;2023-04-26T05:42:56;101799.25;;;17.24;50.69
60319;BME280;46163;52.306;5.634;2023-04-26T05:45:22;101803.75;;;17.30;50.71
60319;BME280;46163;52.306;5.634;2023-04-26T05:47:47;101794.03;;;17.29;50.50
60319;BME280;46163;52.306;5.634;2023-04-26T05:50:13;101802.25;;;17.34;50.46
60319;BME280;46163;52.306;5.634;2023-04-26T05:52:38;101803.66;;;17.37;50.68
60319;BME280;46163;52.306;5.634;2023-04-26T05:55:05;101806.16;;;17.38;50.24
60319;BME280;46163;52.306;5.634;2023-04-26T05:57:31;101799.72;;;17.39;50.58
60319;BME280;46163;52.306;5.634;2023-04-26T05:59:56;101804.88;;;17.41;50.24
60319;BME280;46163;52.306;5.634;2023-04-26T06:02:22;101802.19;;;17.41;50.06
60319;BME280;46163;52.306;5.634;2023-04-26T06:04:47;101805.69;;;17.41;50.38
60319;BME280;46163;52.306;5.634;2023-04-26T06:07:13;101797.63;;;17.41;50.22
60319;BME280;46163;52.306;5.634;2023-04-26T06:09:38;101792.88;;;17.37;50.55
60319;BME280;46163;52.306;5.634;2023-04-26T06:12:04;101803.38;;;17.45;50.48
60319;BME280;46163;52.306;5.634;2023-04-26T06:14:29;101802.31;;;17.46;50.87
60319;BME280;46163;52.306;5.634;2023-04-26T06:16:55;101796.75;;;17.47;50.76
60319;BME280;46163;52.306;5.634;2023-04-26T06:19:21;101805.19;;;17.51;50.59
60319;BME280;46163;52.306;5.634;2023-04-26T06:21:47;101806.00;;;17.51;50.39
60319;BME280;46163;52.306;5.634;2023-04-26T06:24:13;101804.94;;;17.52;50.23
60319;BME280;46163;52.306;5.634;2023-04-26T06:26:39;101800.38;;;17.53;50.32
60319;BME280;46163;52.306;5.634;2023-04-26T06:29:05;101808.22;;;17.55;50.46
60319;BME280;46163;52.306;5.634;2023-04-26T06:31:31;101803.47;;;17.57;50.47
60319;BME280;46163;52.306;5.634;2023-04-26T06:33:56;101815.06;;;17.57;50.35
60319;BME280;46163;52.306;5.634;2023-04-26T06:36:22;101807.22;;;17.56;50.04
60319;BME280;46163;52.306;5.634;2023-04-26T06:38:47;101803.06;;;17.53;49.88
60319;BME280;46163;52.306;5.634;2023-04-26T06:41:13;101819.53;;;17.63;50.08
60319;BME280;46163;52.306;5.634;2023-04-26T06:43:38;101814.16;;;17.63;50.33
60319;BME280;46163;52.306;5.634;2023-04-26T06:46:04;101810.44;;;17.64;50.23
60319;BME280;46163;52.306;5.634;2023-04-26T06:48:30;101811.84;;;17.67;50.50
60319;BME280;46163;52.306;5.634;2023-04-26T06:50:55;101822.19;;;17.70;50.30
60319;BME280;46163;52.306;5.634;2023-04-26T06:53:21;101826.31;;;17.72;50.25
60319;BME280;46163;52.306;5.634;2023-04-26T06:55:47;101820.94;;;17.72;50.63
60319;BME280;46163;52.306;5.634;2023-04-26T06:58:12;101821.75;;;17.73;50.62
60319;BME280;46163;52.306;5.634;2023-04-26T07:00:38;101803.19;;;17.65;50.40
60319;BME280;46163;52.306;5.634;2023-04-26T07:03:03;101824.59;;;17.78;50.54
60319;BME280;46163;52.306;5.634;2023-04-26T07:05:29;101832.44;;;17.79;50.61
60319;BME280;46163;52.306;5.634;2023-04-26T07:07:56;101831.19;;;17.82;50.43
60319;BME280;46163;52.306;5.634;2023-04-26T07:10:22;101835.53;;;17.83;50.23
60319;BME280;46163;52.306;5.634;2023-04-26T07:12:48;101836.94;;;17.86;50.42
60319;BME280;46163;52.306;5.634;2023-04-26T07:15:13;101837.53;;;17.88;50.36
60319;BME280;46163;52.306;5.634;2023-04-26T07:17:39;101836.47;;;17.89;50.31
60319;BME280;46163;52.306;5.634;2023-04-26T07:20:05;101833.41;;;17.85;50.90
60319;BME280;46163;52.306;5.634;2023-04-26T07:22:31;101836.94;;;17.86;51.10
60319;BME280;46163;52.306;5.634;2023-04-26T07:24:56;101841.03;;;17.88;51.30
60319;BME280;46163;52.306;5.634;2023-04-26T07:27:22;101831.53;;;17.86;51.54
60319;BME280;46163;52.306;5.634;2023-04-26T07:29:47;101833.19;;;17.87;51.62
60319;BME280;46163;52.306;5.634;2023-04-26T07:32:13;101830.72;;;17.85;51.75
60319;BME280;46163;52.306;5.634;2023-04-26T07:34:39;101830.72;;;17.85;51.16
60319;BME280;46163;52.306;5.634;2023-04-26T07:37:05;101827.44;;;17.83;50.58
60319;BME280;46163;52.306;5.634;2023-04-26T07:39:31;101832.81;;;17.83;50.39
60319;BME280;46163;52.306;5.634;2023-04-26T07:41:56;101819.19;;;17.78;50.36
60319;BME280;46163;52.306;5.634;2023-04-26T07:44:22;101830.13;;;17.83;50.09
60319;BME280;46163;52.306;5.634;2023-04-26T07:46:47;101827.44;;;17.83;50.26
60319;BME280;46163;52.306;5.634;2023-04-26T07:49:13;101832.44;;;17.79;49.91
60319;BME280;46163;52.306;5.634;2023-04-26T07:51:38;101833.47;;;17.78;50.29
60319;BME280;46163;52.306;5.634;2023-04-26T07:54:05;101831.84;;;17.77;50.22
60319;BME280;46163;52.306;5.634;2023-04-26T07:56:31;101832.66;;;17.78;50.66
60319;BME280;46163;52.306;5.634;2023-04-26T07:58:56;101832.66;;;17.78;50.92
60319;BME280;46163;52.306;5.634;2023-04-26T08:01:22;101834.53;;;17.77;50.90
60319;BME280;46163;52.306;5.634;2023-04-26T08:03:47;101834.53;;;17.77;50.63
60319;BME280;46163;52.306;5.634;2023-04-26T08:06:13;101835.13;;;17.79;50.46
60319;BME280;46163;52.306;5.634;2023-04-26T08:08:38;101834.31;;;17.79;50.50
60319;BME280;46163;52.306;5.634;2023-04-26T08:11:08;101835.75;;;17.82;50.55
60319;BME280;46163;52.306;5.634;2023-04-26T08:13:35;101844.41;;;17.84;50.44
60319;BME280;46163;52.306;5.634;2023-04-26T08:16:01;101836.56;;;17.82;50.47
60319;BME280;46163;52.306;5.634;2023-04-26T08:18:27;101843.97;;;17.87;50.52
60319;BME280;46163;52.306;5.634;2023-04-26T08:20:52;101851.38;;;17.91;50.63
60319;BME280;46163;52.306;5.634;2023-04-26T08:23:20;101848.81;;;17.96;50.64
60319;BME280;46163;52.306;5.634;2023-04-26T08:25:46;101850.47;;;17.97;50.58
60319;BME280;46163;52.306;5.634;2023-04-26T08:28:13;101846.28;;;18.01;50.70
60319;BME280;46163;52.306;5.634;2023-04-26T08:30:40;101841.72;;;18.02;50.67
60319;BME280;46163;52.306;5.634;2023-04-26T08:33:05;101850.97;;;18.06;51.25
60319;BME280;46163;52.306;5.634;2023-04-26T08:35:31;101854.88;;;18.10;51.15
60319;BME280;46163;52.306;5.634;2023-04-26T08:37:56;101861.69;;;18.13;51.13
60319;BME280;46163;52.306;5.634;2023-04-26T08:40:23;101848.81;;;18.15;51.29
60319;BME280;46163;52.306;5.634;2023-04-26T08:42:53;101846.50;;;18.18;51.04
60319;BME280;46163;52.306;5.634;2023-04-26T08:45:20;101845.22;;;18.21;50.89
60319;BME280;46163;52.306;5.634;2023-04-26T08:47:51;101834.81;;;18.24;51.09
60319;BME280;46163;52.306;5.634;2023-04-26T08:50:21;101831.88;;;18.26;50.54
60319;BME280;46163;52.306;5.634;2023-04-26T08:52:48;101836.22;;;18.27;50.41
60319;BME280;46163;52.306;5.634;2023-04-26T08:55:15;101835.19;;;18.28;50.23
60319;BME280;46163;52.306;5.634;2023-04-26T08:57:45;101840.56;;;18.28;50.43
60319;BME280;46163;52.306;5.634;2023-04-26T09:00:12;101835.19;;;18.28;50.38
60319;BME280;46163;52.306;5.634;2023-04-26T09:02:45;101825.88;;;18.24;50.16
60319;BME280;46163;52.306;5.634;2023-04-26T09:05:11;101839.50;;;18.29;50.45
60319;BME280;46163;52.306;5.634;2023-04-26T09:07:44;101836.00;;;18.28;50.49
60319;BME280;46163;52.306;5.634;2023-04-26T09:10:11;101838.47;;;18.30;50.86
60319;BME280;46163;52.306;5.634;2023-04-26T09:12:37;101837.16;;;18.32;50.75
60319;BME280;46163;52.306;5.634;2023-04-26T09:15:07;101836.72;;;18.35;50.56
60319;BME280;46163;52.306;5.634;2023-04-26T09:17:39;101820.56;;;18.35;50.25
60319;BME280;46163;52.306;5.634;2023-04-26T09:20:28;101824.19;;;18.41;50.45
60319;BME280;46163;52.306;5.634;2023-04-26T09:23:05;101822.13;;;18.43;50.12
60319;BME280;46163;52.306;5.634;2023-04-26T09:25:31;101818.59;;;18.43;50.17
60319;BME280;46163;52.306;5.634;2023-04-26T09:27:58;101824.19;;;18.41;50.19
60319;BME280;46163;52.306;5.634;2023-04-26T09:30:25;101830.41;;;18.42;50.15
60319;BME280;46163;52.306;5.634;2023-04-26T09:32:59;101818.22;;;18.39;49.96
60319;BME280;46163;52.306;5.634;2023-04-26T09:35:38;101830.75;;;18.33;50.26
60319;BME280;46163;52.306;5.634;2023-04-26T09:38:09;101829.91;;;18.33;50.18
60319;BME280;46163;52.306;5.634;2023-04-26T09:40:40;101828.25;;;18.32;50.19
60319;BME280;46163;52.306;5.634;2023-04-26T09:43:14;101828.50;;;18.30;50.06
60319;BME280;46163;52.306;5.634;2023-04-26T09:45:50;101829.56;;;18.29;49.96
60319;BME280;46163;52.306;5.634;2023-04-26T09:48:17;101829.78;;;18.28;50.17
60319;BME280;46163;52.306;5.634;2023-04-26T09:50:45;101826.13;;;18.22;50.48
60319;BME280;46163;52.306;5.634;2023-04-26T09:53:11;101842.66;;;18.26;50.16
60319;BME280;46163;52.306;5.634;2023-04-26T09:55:48;101835.03;;;18.23;50.24
60319;BME280;46163;52.306;5.634;2023-04-26T09:58:14;101832.31;;;18.23;50.18
60319;BME280;46163;52.306;5.634;2023-04-26T10:00:41;101829.88;;;18.21;50.36
60319;BME280;46163;52.306;5.634;2023-04-26T10:03:08;101834.59;;;18.26;50.52
60319;BME280;46163;52.306;5.634;2023-04-26T10:05:37;101840.56;;;18.28;50.23
60319;BME280;46163;52.306;5.634;2023-04-26T10:08:04;101833.53;;;18.27;50.49
60319;BME280;46163;52.306;5.634;2023-04-26T10:10:30;101828.00;;;18.22;50.25
60319;BME280;46163;52.306;5.634;2023-04-26T10:12:56;101830.13;;;18.31;50.19
60319;BME280;46163;52.306;5.634;2023-04-26T10:15:21;101828.25;;;18.32;50.02
60319;BME280;46163;52.306;5.634;2023-04-26T10:17:47;101831.59;;;18.34;49.94
60319;BME280;46163;52.306;5.634;2023-04-26T10:20:15;101830.13;;;18.31;48.78
60319;BME280;46163;52.306;5.634;2023-04-26T10:22:53;101827.84;;;18.35;48.07
60319;BME280;46163;52.306;5.634;2023-04-26T10:25:45;101832.59;;;18.33;47.62
60319;BME280;46163;52.306;5.634;2023-04-26T10:28:11;101826.41;;;18.32;47.34
60319;BME280;46163;52.306;5.634;2023-04-26T10:30:56;101834.72;;;18.31;46.98
60319;BME280;46163;52.306;5.634;2023-04-26T10:33:23;101827.91;;;18.28;47.10
60319;BME280;46163;52.306;5.634;2023-04-26T10:36:10;101833.53;;;18.27;46.99
60319;BME280;46163;52.306;5.634;2023-04-26T10:38:38;101826.72;;;18.24;47.27
60319;BME280;46163;52.306;5.634;2023-04-26T10:41:32;101839.34;;;18.24;46.94
60319;BME280;46163;52.306;5.634;2023-04-26T10:47:05;101825.53;;;18.20;46.88
60319;BME280;46163;52.306;5.634;2023-04-26T10:49:42;101828.00;;;18.22;47.24
60319;BME280;46163;52.306;5.634;2023-04-26T10:52:11;101825.53;;;18.20;47.22
60319;BME280;46163;52.306;5.634;2023-04-26T10:57:09;101834.44;;;18.21;47.22
60319;BME280;46163;52.306;5.634;2023-04-26T10:59:35;101812.13;;;18.14;46.77
60319;BME280;46163;52.306;5.634;2023-04-26T11:02:01;101821.78;;;18.21;46.90
60319;BME280;46163;52.306;5.634;2023-04-26T11:04:49;101835.84;;;18.23;46.87
60319;BME280;46163;52.306;5.634;2023-04-26T11:07:15;101836.91;;;18.22;48.03
60319;BME280;46163;52.306;5.634;2023-04-26T11:09:47;101831.28;;;18.24;48.21
60319;BME280;46163;52.306;5.634;2023-04-26T11:12:14;101830.69;;;18.22;48.41
60319;BME280;46163;52.306;5.634;2023-04-26T11:14:40;101831.75;;;18.21;48.66
60319;BME280;46163;52.306;5.634;2023-04-26T11:17:08;101833.38;;;18.22;48.48
60319;BME280;46163;52.306;5.634;2023-04-26T11:19:34;101829.88;;;18.21;48.30
60319;BME280;46163;52.306;5.634;2023-04-26T11:22:00;101828.22;;;18.20;48.85
60319;BME280;46163;52.306;5.634;2023-04-26T11:24:28;101823.06;;;18.19;49.02
60319;BME280;46163;52.306;5.634;2023-04-26T11:26:54;101822.47;;;18.17;49.30
60319;BME280;46163;52.306;5.634;2023-04-26T11:29:20;101823.53;;;18.16;49.30
60319;BME280;46163;52.306;5.634;2023-04-26T11:34:20;101821.84;;;18.15;49.81
60319;BME280;46163;52.306;5.634;2023-04-26T11:36:47;101822.31;;;18.12;49.59
60319;BME280;46163;52.306;5.634;2023-04-26T11:39:12;101814.25;;;18.12;49.60
60319;BME280;46163;52.306;5.634;2023-04-26T11:41:41;101821.72;;;18.10;49.84
60319;BME280;46163;52.306;5.634;2023-04-26T11:44:12;101818.44;;;18.07;49.63
60319;BME280;46163;52.306;5.634;2023-04-26T11:46:44;101820.53;;;18.05;49.61
60319;BME280;46163;52.306;5.634;2023-04-26T11:49:11;101817.63;;;18.07;50.20
60319;BME280;46163;52.306;5.634;2023-04-26T11:51:37;101818.66;;;18.06;50.02
60319;BME280;46163;52.306;5.634;2023-04-26T11:54:02;101815.59;;;18.02;50.28
60319;BME280;46163;52.306;5.634;2023-04-26T11:56:28;101821.00;;;18.02;50.36
60319;BME280;46163;52.306;5.634;2023-04-26T11:58:53;101815.84;;;18.01;50.25
60319;BME280;46163;52.306;5.634;2023-04-26T12:01:26;101824.72;;;18.01;49.77
60319;BME280;46163;52.306;5.634;2023-04-26T12:03:53;101820.63;;;17.99;49.78
60319;BME280;46163;52.306;5.634;2023-04-26T12:06:25;101827.28;;;17.96;49.73
60319;BME280;46163;52.306;5.634;2023-04-26T12:08:53;101825.28;;;17.92;49.72
60319;BME280;46163;52.306;5.634;2023-04-26T12:11:20;101819.06;;;17.91;49.43
60319;BME280;46163;52.306;5.634;2023-04-26T12:13:46;101820.31;;;17.89;49.45
60319;BME280;46163;52.306;5.634;2023-04-26T12:16:12;101817.41;;;17.90;49.62
60319;BME280;46163;52.306;5.634;2023-04-26T12:18:40;101820.13;;;17.90;49.46
60319;BME280;46163;52.306;5.634;2023-04-26T12:21:06;101815.38;;;17.86;49.45
60319;BME280;46163;52.306;5.634;2023-04-26T12:23:39;101824.44;;;17.91;49.54
60319;BME280;46163;52.306;5.634;2023-04-26T12:26:05;101827.72;;;17.93;49.53
60319;BME280;46163;52.306;5.634;2023-04-26T12:28:31;101824.16;;;17.99;49.31
60319;BME280;46163;52.306;5.634;2023-04-26T12:30:57;101829.66;;;18.04;49.24
60319;BME280;46163;52.306;5.634;2023-04-26T12:33:24;101830.06;;;18.08;49.00
60319;BME280;46163;52.306;5.634;2023-04-26T12:35:50;101823.59;;;18.09;49.07
60319;BME280;46163;52.306;5.634;2023-04-26T12:38:16;101827.72;;;18.12;49.15
60319;BME280;46163;52.306;5.634;2023-04-26T12:40:43;101814.16;;;18.18;48.73
60319;BME280;46163;52.306;5.634;2023-04-26T12:43:08;101811.25;;;18.20;49.03
60319;BME280;46163;52.306;5.634;2023-04-26T12:45:34;101820.06;;;18.27;48.77
60319;BME280;46163;52.306;5.634;2023-04-26T12:47:59;101810.56;;;18.24;48.77
60319;BME280;46163;52.306;5.634;2023-04-26T12:50:25;101816.91;;;18.30;48.46
60319;BME280;46163;52.306;5.634;2023-04-26T12:52:51;101820.19;;;18.32;48.42
60319;BME280;46163;52.306;5.634;2023-04-26T12:55:17;101801.56;;;18.30;48.45
60319;BME280;46163;52.306;5.634;2023-04-26T12:57:43;101820.81;;;18.34;48.54